Details From SABE - Aeroparque Jorge Newbery
To SASA - Salta
Flight Number -
Tags Generated
Created
Modified
Stats Distance 689 nm / 1,276 km
Max Altitude 0 ft / 0 m
Waypoints 4
Social Downloads 1
Likes 0
Share VATSIM

Download

Looking for another format? Having issues loading an existing format? Contact us
Advertisement - Login to hide

Notes

Generated

Route

SABE SVO SAL02 SASA

ID Type Via Altitude Latitude Longitude Leg Dist Tot Dist Heading (true) Name
O SABE APT - 0 ft / 0 m -34.55416˚ -58.42526˚ - 0 nm - -
SVO NDB - 0 ft / 0 m -31.71167˚ -60.80639˚ 208 nm 208 nm 324° / 326° SAUCE VIEJO NDB
SAL02 FIX - 0 ft / 0 m -24.88459˚ -65.49342˚ 478 nm 687 nm 328° / 330° -
O SASA APT - 0 ft / 0 m -24.85809˚ -65.48957˚ 1 nm 689 nm 8° / 8° -

Altitude Profile

Advertisement - Login to hide

Weather


0- 5 10 15 20 25 30 35+ Temperature / ° C

Clouds and Precipitation
Forecast for 2018-05-20 18:00 UTC. Updated 3 hours ago

Ground ~20,000 ft ~40,000 ft Winds

SABE

Details ICAO SABE (AEP)
Name Aeroparque Jorge Newbery
Region Argentina
Timezone Unknown (UTC+0.0)
Stats Elevation 17 ft / 5 m (AMSL)
Location -34.559414° -58.415749°
Runways 1
Magnetic Variation 9.052° W

METAR

SABE 201900Z 05003KT CAVOK 15/10 Q1016 NOSIG

Decode

TAF

TAF SABE 201700Z 2018/2118 02005KT 9999 FEW035 TX18/2118Z TN12/2110Z BECMG 2105/2107 30005KT BKN035 BECMG 2106/2108 27010KT SCT030

Decode

Departure Runways

ID Width Length Bearing (true) Bearing (mag) Surface Threshold Offset Overrun Length
13 131 ft / 40 m 6,882 ft / 2,098 m 123.87° 132.92° Concrete 0 ft / 0 m 791 ft / 241 m
31 131 ft / 40 m 6,882 ft / 2,098 m 303.86° 312.91° Concrete 991 ft / 302 m 0 ft / 0 m

SASA

Details ICAO SASA (SLA)
Name SALTA
Region Argentina
Timezone America/Argentina/Salta (UTC-3.0)
Stats Elevation 4,088 ft / 1,246 m (AMSL)
Location -24.855532° -65.483616°
Runways 2
Magnetic Variation 7.526° W

METAR

SASA 201900Z 05006KT CAVOK 18/09 Q1016

Decode

TAF

TAF SASA 201700Z 2018/2118 05005KT 9999 SCT020 TX19/2118Z TN05/2110Z BECMG 2021/2100 09005KT 9999 SCT025

Decode

Destination Runways

ID Width Length Bearing (true) Bearing (mag) Surface Threshold Offset Overrun Length
02 148 ft / 45 m 9,844 ft / 3,001 m 11.23° 18.76° Asphalt 0 ft / 0 m 95 ft / 29 m
06 98 ft / 30 m 7,876 ft / 2,401 m 52.08° 59.61° Asphalt 0 ft / 0 m 0 ft / 0 m
20 148 ft / 45 m 9,844 ft / 3,001 m 191.23° 198.76° Asphalt 0 ft / 0 m 95 ft / 29 m
24 98 ft / 30 m 7,876 ft / 2,401 m 232.07° 239.60° Asphalt 0 ft / 0 m 0 ft / 0 m

Approach Navaids

Runway Type Ident Frequency Range Bearing (true) Bearing (mag) Slope Elevation
02 Localiser SA 110.30 MHz 18 nm / 33 km 11.03° 18.55° - 4,088 ft / 1,246 m (AMSL)
02 Glidescope SA 110.30 MHz 10 nm / 19 km 11.23° 18.75° 3.00° 4,088 ft / 1,246 m (AMSL)

Popular Alternatives